sensor_id;sensor_type;location;lat;lon;timestamp;P1;durP1;ratioP1;P2;durP2;ratioP2
38224;SDS011;24025;48.138;11.428;2022-11-20T00:00:08;2.70;;;1.02;;
38224;SDS011;24025;48.138;11.428;2022-11-20T00:02:39;1.30;;;0.90;;
38224;SDS011;24025;48.138;11.428;2022-11-20T00:05:10;3.50;;;1.15;;
38224;SDS011;24025;48.138;11.428;2022-11-20T00:07:40;2.05;;;1.30;;
38224;SDS011;24025;48.138;11.428;2022-11-20T00:10:11;4.22;;;1.20;;
38224;SDS011;24025;48.138;11.428;2022-11-20T00:12:41;1.48;;;0.95;;
38224;SDS011;24025;48.138;11.428;2022-11-20T00:15:11;1.27;;;1.02;;
38224;SDS011;24025;48.138;11.428;2022-11-20T00:17:42;1.30;;;0.98;;
38224;SDS011;24025;48.138;11.428;2022-11-20T00:20:12;2.05;;;0.82;;
38224;SDS011;24025;48.138;11.428;2022-11-20T00:22:43;1.52;;;0.98;;
38224;SDS011;24025;48.138;11.428;2022-11-20T00:25:13;2.50;;;1.48;;
38224;SDS011;24025;48.138;11.428;2022-11-20T00:27:44;1.80;;;1.10;;
38224;SDS011;24025;48.138;11.428;2022-11-20T00:30:14;4.55;;;1.17;;
38224;SDS011;24025;48.138;11.428;2022-11-20T00:32:45;2.60;;;1.10;;
38224;SDS011;24025;48.138;11.428;2022-11-20T00:35:15;2.83;;;1.33;;
38224;SDS011;24025;48.138;11.428;2022-11-20T00:37:45;1.88;;;1.00;;
38224;SDS011;24025;48.138;11.428;2022-11-20T00:40:16;6.88;;;1.35;;
38224;SDS011;24025;48.138;11.428;2022-11-20T00:42:46;1.58;;;1.10;;
38224;SDS011;24025;48.138;11.428;2022-11-20T00:45:17;3.63;;;1.42;;
38224;SDS011;24025;48.138;11.428;2022-11-20T00:47:47;2.97;;;1.20;;
38224;SDS011;24025;48.138;11.428;2022-11-20T00:50:18;1.30;;;1.00;;
38224;SDS011;24025;48.138;11.428;2022-11-20T00:52:48;1.60;;;1.00;;
38224;SDS011;24025;48.138;11.428;2022-11-20T00:55:18;2.42;;;1.23;;
38224;SDS011;24025;48.138;11.428;2022-11-20T00:57:49;2.13;;;1.30;;
38224;SDS011;24025;48.138;11.428;2022-11-20T01:00:19;1.48;;;1.10;;
38224;SDS011;24025;48.138;11.428;2022-11-20T01:02:50;2.05;;;1.17;;
38224;SDS011;24025;48.138;11.428;2022-11-20T01:05:20;2.85;;;1.50;;
38224;SDS011;24025;48.138;11.428;2022-11-20T01:07:50;4.35;;;1.65;;
38224;SDS011;24025;48.138;11.428;2022-11-20T01:10:21;2.53;;;1.48;;
38224;SDS011;24025;48.138;11.428;2022-11-20T01:12:51;3.88;;;1.25;;
38224;SDS011;24025;48.138;11.428;2022-11-20T01:15:41;1.67;;;1.20;;
38224;SDS011;24025;48.138;11.428;2022-11-20T01:18:12;1.58;;;1.02;;
38224;SDS011;24025;48.138;11.428;2022-11-20T01:20:42;3.72;;;1.30;;
38224;SDS011;24025;48.138;11.428;2022-11-20T01:23:12;1.70;;;1.33;;
38224;SDS011;24025;48.138;11.428;2022-11-20T01:25:43;1.50;;;1.00;;
38224;SDS011;24025;48.138;11.428;2022-11-20T01:28:13;1.60;;;1.10;;
38224;SDS011;24025;48.138;11.428;2022-11-20T01:30:43;1.92;;;1.17;;
38224;SDS011;24025;48.138;11.428;2022-11-20T01:33:14;3.03;;;1.08;;
38224;SDS011;24025;48.138;11.428;2022-11-20T01:35:44;2.05;;;1.05;;
38224;SDS011;24025;48.138;11.428;2022-11-20T01:38:15;3.70;;;1.20;;
38224;SDS011;24025;48.138;11.428;2022-11-20T01:40:53;1.40;;;1.10;;
38224;SDS011;24025;48.138;11.428;2022-11-20T01:43:25;1.25;;;0.88;;
38224;SDS011;24025;48.138;11.428;2022-11-20T01:51:57;3.65;;;1.17;;
38224;SDS011;24025;48.138;11.428;2022-11-20T01:54:36;1.60;;;1.08;;
38224;SDS011;24025;48.138;11.428;2022-11-20T01:57:12;1.63;;;0.88;;
38224;SDS011;24025;48.138;11.428;2022-11-20T02:02:19;1.60;;;1.02;;
38224;SDS011;24025;48.138;11.428;2022-11-20T02:04:51;2.40;;;1.13;;
38224;SDS011;24025;48.138;11.428;2022-11-20T02:07:24;1.63;;;0.98;;
38224;SDS011;24025;48.138;11.428;2022-11-20T02:09:54;3.00;;;1.20;;
38224;SDS011;24025;48.138;11.428;2022-11-20T02:12:25;1.85;;;1.00;;
38224;SDS011;24025;48.138;11.428;2022-11-20T02:15:15;1.50;;;1.02;;
38224;SDS011;24025;48.138;11.428;2022-11-20T02:17:46;1.63;;;1.23;;
38224;SDS011;24025;48.138;11.428;2022-11-20T02:20:16;1.60;;;0.93;;
38224;SDS011;24025;48.138;11.428;2022-11-20T02:22:57;2.65;;;1.27;;
38224;SDS011;24025;48.138;11.428;2022-11-20T02:25:41;1.40;;;1.13;;
38224;SDS011;24025;48.138;11.428;2022-11-20T02:28:13;3.17;;;1.20;;
38224;SDS011;24025;48.138;11.428;2022-11-20T02:30:43;3.45;;;1.55;;
38224;SDS011;24025;48.138;11.428;2022-11-20T02:33:13;3.35;;;1.42;;
38224;SDS011;24025;48.138;11.428;2022-11-20T02:35:45;2.42;;;1.30;;
38224;SDS011;24025;48.138;11.428;2022-11-20T02:38:16;2.80;;;1.88;;
38224;SDS011;24025;48.138;11.428;2022-11-20T02:40:47;2.53;;;1.58;;
38224;SDS011;24025;48.138;11.428;2022-11-20T02:43:18;3.72;;;1.10;;
38224;SDS011;24025;48.138;11.428;2022-11-20T02:45:48;1.95;;;1.30;;
38224;SDS011;24025;48.138;11.428;2022-11-20T02:48:18;1.80;;;1.42;;
38224;SDS011;24025;48.138;11.428;2022-11-20T02:50:49;2.50;;;1.30;;
38224;SDS011;24025;48.138;11.428;2022-11-20T02:53:19;3.08;;;1.45;;
38224;SDS011;24025;48.138;11.428;2022-11-20T02:55:49;1.83;;;1.45;;
38224;SDS011;24025;48.138;11.428;2022-11-20T02:58:20;1.73;;;1.38;;
38224;SDS011;24025;48.138;11.428;2022-11-20T03:00:51;3.80;;;1.30;;
38224;SDS011;24025;48.138;11.428;2022-11-20T03:03:22;1.77;;;1.47;;
38224;SDS011;24025;48.138;11.428;2022-11-20T03:05:52;1.83;;;1.23;;
38224;SDS011;24025;48.138;11.428;2022-11-20T03:08:22;1.40;;;1.10;;
38224;SDS011;24025;48.138;11.428;2022-11-20T03:10:53;1.75;;;1.15;;
38224;SDS011;24025;48.138;11.428;2022-11-20T03:13:24;2.45;;;1.33;;
38224;SDS011;24025;48.138;11.428;2022-11-20T03:15:55;6.07;;;1.40;;
38224;SDS011;24025;48.138;11.428;2022-11-20T03:18:27;2.47;;;1.40;;
38224;SDS011;24025;48.138;11.428;2022-11-20T03:20:58;1.83;;;1.10;;
38224;SDS011;24025;48.138;11.428;2022-11-20T03:23:29;2.75;;;1.30;;
38224;SDS011;24025;48.138;11.428;2022-11-20T03:26:20;3.08;;;1.30;;
38224;SDS011;24025;48.138;11.428;2022-11-20T03:28:53;4.55;;;1.42;;
38224;SDS011;24025;48.138;11.428;2022-11-20T03:31:26;3.67;;;1.58;;
38224;SDS011;24025;48.138;11.428;2022-11-20T03:33:58;1.63;;;1.38;;
38224;SDS011;24025;48.138;11.428;2022-11-20T03:36:30;1.73;;;1.42;;
38224;SDS011;24025;48.138;11.428;2022-11-20T03:39:00;2.35;;;1.23;;
38224;SDS011;24025;48.138;11.428;2022-11-20T03:41:31;2.83;;;1.33;;
38224;SDS011;24025;48.138;11.428;2022-11-20T03:44:06;4.82;;;1.58;;
38224;SDS011;24025;48.138;11.428;2022-11-20T03:46:38;3.70;;;1.40;;
38224;SDS011;24025;48.138;11.428;2022-11-20T03:49:09;2.63;;;1.70;;
38224;SDS011;24025;48.138;11.428;2022-11-20T03:51:39;2.00;;;1.25;;
38224;SDS011;24025;48.138;11.428;2022-11-20T03:54:09;2.08;;;1.35;;
38224;SDS011;24025;48.138;11.428;2022-11-20T03:56:40;2.60;;;1.83;;
38224;SDS011;24025;48.138;11.428;2022-11-20T03:59:10;2.15;;;1.10;;
38224;SDS011;24025;48.138;11.428;2022-11-20T04:01:41;3.97;;;1.40;;
38224;SDS011;24025;48.138;11.428;2022-11-20T04:04:11;1.65;;;1.55;;
38224;SDS011;24025;48.138;11.428;2022-11-20T04:06:41;1.58;;;1.40;;
38224;SDS011;24025;48.138;11.428;2022-11-20T04:09:12;2.35;;;1.35;;
38224;SDS011;24025;48.138;11.428;2022-11-20T04:11:42;1.60;;;1.20;;
38224;SDS011;24025;48.138;11.428;2022-11-20T04:14:13;3.03;;;1.42;;
38224;SDS011;24025;48.138;11.428;2022-11-20T04:16:45;2.30;;;1.27;;
38224;SDS011;24025;48.138;11.428;2022-11-20T04:19:16;2.40;;;1.40;;
38224;SDS011;24025;48.138;11.428;2022-11-20T04:21:46;2.28;;;1.33;;
38224;SDS011;24025;48.138;11.428;2022-11-20T04:24:17;1.90;;;1.38;;
38224;SDS011;24025;48.138;11.428;2022-11-20T04:26:47;1.38;;;1.15;;
38224;SDS011;24025;48.138;11.428;2022-11-20T04:29:17;6.63;;;1.45;;
38224;SDS011;24025;48.138;11.428;2022-11-20T04:31:48;4.75;;;1.25;;
38224;SDS011;24025;48.138;11.428;2022-11-20T04:34:18;2.08;;;1.27;;
38224;SDS011;24025;48.138;11.428;2022-11-20T04:36:49;2.00;;;1.38;;
38224;SDS011;24025;48.138;11.428;2022-11-20T04:39:19;5.15;;;1.17;;
38224;SDS011;24025;48.138;11.428;2022-11-20T04:41:49;3.83;;;1.00;;
38224;SDS011;24025;48.138;11.428;2022-11-20T04:44:40;2.17;;;1.52;;
38224;SDS011;24025;48.138;11.428;2022-11-20T04:47:10;3.53;;;1.38;;
38224;SDS011;24025;48.138;11.428;2022-11-20T04:49:40;2.67;;;1.23;;
38224;SDS011;24025;48.138;11.428;2022-11-20T04:52:11;2.30;;;1.50;;
38224;SDS011;24025;48.138;11.428;2022-11-20T04:54:41;3.80;;;1.40;;
38224;SDS011;24025;48.138;11.428;2022-11-20T04:57:12;2.28;;;1.80;;
38224;SDS011;24025;48.138;11.428;2022-11-20T04:59:43;3.05;;;1.58;;
38224;SDS011;24025;48.138;11.428;2022-11-20T05:02:13;2.30;;;1.20;;
38224;SDS011;24025;48.138;11.428;2022-11-20T05:04:44;2.00;;;1.45;;
38224;SDS011;24025;48.138;11.428;2022-11-20T05:07:14;2.90;;;1.75;;
38224;SDS011;24025;48.138;11.428;2022-11-20T05:09:44;2.83;;;1.48;;
38224;SDS011;24025;48.138;11.428;2022-11-20T05:12:15;5.63;;;1.30;;
38224;SDS011;24025;48.138;11.428;2022-11-20T05:14:45;2.15;;;1.67;;
38224;SDS011;24025;48.138;11.428;2022-11-20T05:17:15;2.03;;;1.45;;
38224;SDS011;24025;48.138;11.428;2022-11-20T05:19:46;2.63;;;1.42;;
38224;SDS011;24025;48.138;11.428;2022-11-20T05:22:16;3.72;;;1.90;;
38224;SDS011;24025;48.138;11.428;2022-11-20T05:24:47;2.30;;;1.63;;
38224;SDS011;24025;48.138;11.428;2022-11-20T05:27:17;1.63;;;1.35;;
38224;SDS011;24025;48.138;11.428;2022-11-20T05:29:47;2.85;;;1.30;;
38224;SDS011;24025;48.138;11.428;2022-11-20T05:32:18;3.83;;;1.80;;
38224;SDS011;24025;48.138;11.428;2022-11-20T05:34:48;3.42;;;1.50;;
38224;SDS011;24025;48.138;11.428;2022-11-20T05:37:19;1.92;;;1.27;;
38224;SDS011;24025;48.138;11.428;2022-11-20T05:39:49;1.85;;;1.23;;
38224;SDS011;24025;48.138;11.428;2022-11-20T05:42:19;1.30;;;1.15;;
38224;SDS011;24025;48.138;11.428;2022-11-20T05:45:02;1.80;;;1.23;;
38224;SDS011;24025;48.138;11.428;2022-11-20T05:47:34;1.20;;;1.10;;
38224;SDS011;24025;48.138;11.428;2022-11-20T05:50:05;2.92;;;1.25;;
38224;SDS011;24025;48.138;11.428;2022-11-20T05:52:35;3.50;;;1.00;;
38224;SDS011;24025;48.138;11.428;2022-11-20T05:55:06;1.42;;;1.00;;
38224;SDS011;24025;48.138;11.428;2022-11-20T05:57:37;2.88;;;1.10;;
38224;SDS011;24025;48.138;11.428;2022-11-20T06:00:07;2.58;;;1.10;;
38224;SDS011;24025;48.138;11.428;2022-11-20T06:02:38;2.55;;;1.50;;
38224;SDS011;24025;48.138;11.428;2022-11-20T06:05:09;3.13;;;1.70;;
38224;SDS011;24025;48.138;11.428;2022-11-20T06:07:39;3.45;;;1.60;;
38224;SDS011;24025;48.138;11.428;2022-11-20T06:10:09;1.80;;;1.30;;
38224;SDS011;24025;48.138;11.428;2022-11-20T06:12:40;2.25;;;1.20;;
38224;SDS011;24025;48.138;11.428;2022-11-20T06:15:10;1.50;;;1.40;;
38224;SDS011;24025;48.138;11.428;2022-11-20T06:17:41;2.45;;;1.35;;
38224;SDS011;24025;48.138;11.428;2022-11-20T06:20:11;2.40;;;1.08;;
38224;SDS011;24025;48.138;11.428;2022-11-20T06:22:41;2.65;;;1.38;;
38224;SDS011;24025;48.138;11.428;2022-11-20T06:25:12;1.50;;;1.05;;
38224;SDS011;24025;48.138;11.428;2022-11-20T06:27:42;2.90;;;1.45;;
38224;SDS011;24025;48.138;11.428;2022-11-20T06:30:13;3.75;;;1.20;;
38224;SDS011;24025;48.138;11.428;2022-11-20T06:32:43;3.90;;;1.40;;
38224;SDS011;24025;48.138;11.428;2022-11-20T06:35:13;1.50;;;0.90;;
38224;SDS011;24025;48.138;11.428;2022-11-20T06:37:44;3.25;;;1.08;;
38224;SDS011;24025;48.138;11.428;2022-11-20T06:40:14;2.75;;;0.70;;
38224;SDS011;24025;48.138;11.428;2022-11-20T06:42:45;1.90;;;0.77;;
38224;SDS011;24025;48.138;11.428;2022-11-20T06:45:15;2.05;;;0.88;;
38224;SDS011;24025;48.138;11.428;2022-11-20T06:47:45;0.98;;;0.80;;
38224;SDS011;24025;48.138;11.428;2022-11-20T06:50:16;2.15;;;0.80;;
38224;SDS011;24025;48.138;11.428;2022-11-20T06:52:46;0.93;;;0.63;;
38224;SDS011;24025;48.138;11.428;2022-11-20T06:55:16;1.55;;;0.70;;
38224;SDS011;24025;48.138;11.428;2022-11-20T06:57:47;1.55;;;1.00;;
38224;SDS011;24025;48.138;11.428;2022-11-20T07:00:17;1.95;;;1.13;;
38224;SDS011;24025;48.138;11.428;2022-11-20T07:02:48;1.40;;;1.17;;
38224;SDS011;24025;48.138;11.428;2022-11-20T07:05:18;2.08;;;1.15;;
38224;SDS011;24025;48.138;11.428;2022-11-20T07:07:48;1.35;;;1.00;;
38224;SDS011;24025;48.138;11.428;2022-11-20T07:10:19;2.70;;;0.85;;
38224;SDS011;24025;48.138;11.428;2022-11-20T07:12:52;1.77;;;0.90;;
38224;SDS011;24025;48.138;11.428;2022-11-20T07:15:23;2.47;;;1.30;;
38224;SDS011;24025;48.138;11.428;2022-11-20T07:17:54;1.65;;;1.10;;
38224;SDS011;24025;48.138;11.428;2022-11-20T07:20:25;3.03;;;1.70;;
38224;SDS011;24025;48.138;11.428;2022-11-20T07:22:56;2.10;;;0.90;;
38224;SDS011;24025;48.138;11.428;2022-11-20T07:25:27;1.13;;;0.83;;
38224;SDS011;24025;48.138;11.428;2022-11-20T07:27:59;2.28;;;1.05;;
38224;SDS011;24025;48.138;11.428;2022-11-20T07:30:30;1.67;;;1.27;;
38224;SDS011;24025;48.138;11.428;2022-11-20T07:33:00;1.45;;;1.30;;
38224;SDS011;24025;48.138;11.428;2022-11-20T07:35:31;3.17;;;1.20;;
38224;SDS011;24025;48.138;11.428;2022-11-20T07:38:01;3.88;;;1.67;;
38224;SDS011;24025;48.138;11.428;2022-11-20T07:40:32;2.08;;;1.40;;
38224;SDS011;24025;48.138;11.428;2022-11-20T07:43:02;2.65;;;1.02;;
38224;SDS011;24025;48.138;11.428;2022-11-20T07:45:32;3.00;;;1.30;;
38224;SDS011;24025;48.138;11.428;2022-11-20T07:48:03;1.77;;;1.30;;
38224;SDS011;24025;48.138;11.428;2022-11-20T07:50:34;2.78;;;1.52;;
38224;SDS011;24025;48.138;11.428;2022-11-20T07:53:04;1.95;;;1.30;;
38224;SDS011;24025;48.138;11.428;2022-11-20T07:55:35;2.22;;;1.40;;
38224;SDS011;24025;48.138;11.428;2022-11-20T07:58:06;6.63;;;1.65;;
38224;SDS011;24025;48.138;11.428;2022-11-20T08:00:36;2.15;;;1.48;;
38224;SDS011;24025;48.138;11.428;2022-11-20T08:03:06;1.67;;;1.30;;
38224;SDS011;24025;48.138;11.428;2022-11-20T08:05:37;3.97;;;1.40;;
38224;SDS011;24025;48.138;11.428;2022-11-20T08:08:07;6.65;;;1.10;;
38224;SDS011;24025;48.138;11.428;2022-11-20T08:10:38;1.33;;;1.17;;
38224;SDS011;24025;48.138;11.428;2022-11-20T08:13:08;1.42;;;0.98;;
38224;SDS011;24025;48.138;11.428;2022-11-20T08:15:57;2.83;;;1.25;;
38224;SDS011;24025;48.138;11.428;2022-11-20T08:18:27;1.60;;;1.05;;
38224;SDS011;24025;48.138;11.428;2022-11-20T08:21:01;2.45;;;1.08;;
38224;SDS011;24025;48.138;11.428;2022-11-20T08:23:33;1.75;;;1.13;;
38224;SDS011;24025;48.138;11.428;2022-11-20T08:26:03;4.82;;;1.40;;
38224;SDS011;24025;48.138;11.428;2022-11-20T08:28:34;2.08;;;1.20;;
38224;SDS011;24025;48.138;11.428;2022-11-20T08:31:04;1.63;;;1.13;;
38224;SDS011;24025;48.138;11.428;2022-11-20T08:33:35;1.95;;;0.90;;
38224;SDS011;24025;48.138;11.428;2022-11-20T08:36:05;2.20;;;1.00;;
38224;SDS011;24025;48.138;11.428;2022-11-20T08:38:36;1.92;;;0.80;;
38224;SDS011;24025;48.138;11.428;2022-11-20T08:41:07;2.88;;;1.35;;
38224;SDS011;24025;48.138;11.428;2022-11-20T08:43:56;2.40;;;0.80;;
38224;SDS011;24025;48.138;11.428;2022-11-20T08:46:38;1.65;;;0.80;;
38224;SDS011;24025;48.138;11.428;2022-11-20T08:49:14;1.00;;;0.82;;
38224;SDS011;24025;48.138;11.428;2022-11-20T08:51:44;1.55;;;0.90;;
38224;SDS011;24025;48.138;11.428;2022-11-20T08:54:16;4.57;;;1.30;;
38224;SDS011;24025;48.138;11.428;2022-11-20T08:56:49;1.60;;;0.98;;
38224;SDS011;24025;48.138;11.428;2022-11-20T08:59:20;2.17;;;0.88;;
38224;SDS011;24025;48.138;11.428;2022-11-20T09:01:50;3.30;;;1.30;;
38224;SDS011;24025;48.138;11.428;2022-11-20T09:04:21;1.30;;;1.08;;
38224;SDS011;24025;48.138;11.428;2022-11-20T09:06:51;1.33;;;1.08;;
38224;SDS011;24025;48.138;11.428;2022-11-20T09:09:22;1.88;;;1.20;;
38224;SDS011;24025;48.138;11.428;2022-11-20T09:11:52;0.95;;;0.85;;
38224;SDS011;24025;48.138;11.428;2022-11-20T09:14:22;1.40;;;0.95;;
38224;SDS011;24025;48.138;11.428;2022-11-20T09:16:59;3.25;;;0.73;;
38224;SDS011;24025;48.138;11.428;2022-11-20T09:19:29;1.23;;;0.95;;
38224;SDS011;24025;48.138;11.428;2022-11-20T09:22:00;1.67;;;0.80;;
38224;SDS011;24025;48.138;11.428;2022-11-20T09:24:30;3.05;;;0.90;;
38224;SDS011;24025;48.138;11.428;2022-11-20T09:27:04;1.65;;;0.90;;
38224;SDS011;24025;48.138;11.428;2022-11-20T09:29:35;1.50;;;0.80;;
38224;SDS011;24025;48.138;11.428;2022-11-20T09:32:05;1.98;;;0.80;;
38224;SDS011;24025;48.138;11.428;2022-11-20T09:34:35;1.70;;;0.70;;
38224;SDS011;24025;48.138;11.428;2022-11-20T09:37:06;1.80;;;0.82;;
38224;SDS011;24025;48.138;11.428;2022-11-20T09:39:37;1.35;;;0.75;;
38224;SDS011;24025;48.138;11.428;2022-11-20T09:45:15;2.15;;;0.80;;
38224;SDS011;24025;48.138;11.428;2022-11-20T09:50:36;1.17;;;0.60;;
38224;SDS011;24025;48.138;11.428;2022-11-20T09:56:10;0.95;;;0.77;;
38224;SDS011;24025;48.138;11.428;2022-11-20T09:58:42;1.35;;;0.80;;
38224;SDS011;24025;48.138;11.428;2022-11-20T10:01:17;1.27;;;0.95;;
38224;SDS011;24025;48.138;11.428;2022-11-20T10:03:58;3.63;;;0.68;;
38224;SDS011;24025;48.138;11.428;2022-11-20T10:06:33;3.30;;;1.02;;
38224;SDS011;24025;48.138;11.428;2022-11-20T10:23:23;2.67;;;0.65;;
38224;SDS011;24025;48.138;11.428;2022-11-20T10:29:13;1.38;;;0.77;;
38224;SDS011;24025;48.138;11.428;2022-11-20T10:31:49;1.08;;;0.65;;
38224;SDS011;24025;48.138;11.428;2022-11-20T10:34:49;0.80;;;0.60;;
38224;SDS011;24025;48.138;11.428;2022-11-20T10:37:25;0.95;;;0.80;;
38224;SDS011;24025;48.138;11.428;2022-11-20T10:42:32;1.27;;;0.60;;
38224;SDS011;24025;48.138;11.428;2022-11-20T10:45:20;2.30;;;0.60;;
38224;SDS011;24025;48.138;11.428;2022-11-20T10:48:11;0.90;;;0.35;;
38224;SDS011;24025;48.138;11.428;2022-11-20T10:50:53;0.75;;;0.45;;
38224;SDS011;24025;48.138;11.428;2022-11-20T10:53:40;0.57;;;0.38;;
38224;SDS011;24025;48.138;11.428;2022-11-20T10:59:10;1.33;;;0.60;;
38224;SDS011;24025;48.138;11.428;2022-11-20T11:02:00;2.40;;;0.50;;
38224;SDS011;24025;48.138;11.428;2022-11-20T11:04:40;0.85;;;0.50;;
38224;SDS011;24025;48.138;11.428;2022-11-20T11:07:23;0.90;;;0.60;;
38224;SDS011;24025;48.138;11.428;2022-11-20T11:09:55;0.93;;;0.50;;
38224;SDS011;24025;48.138;11.428;2022-11-20T11:12:28;1.45;;;0.45;;
38224;SDS011;24025;48.138;11.428;2022-11-20T11:14:58;1.23;;;0.50;;
38224;SDS011;24025;48.138;11.428;2022-11-20T11:17:30;1.08;;;0.80;;
38224;SDS011;24025;48.138;11.428;2022-11-20T11:23:22;1.77;;;0.70;;
38224;SDS011;24025;48.138;11.428;2022-11-20T11:25:59;0.50;;;0.50;;
38224;SDS011;24025;48.138;11.428;2022-11-20T11:28:30;0.45;;;0.40;;
38224;SDS011;24025;48.138;11.428;2022-11-20T11:31:01;1.60;;;0.63;;
38224;SDS011;24025;48.138;11.428;2022-11-20T11:33:32;1.42;;;0.57;;
38224;SDS011;24025;48.138;11.428;2022-11-20T11:36:16;1.48;;;0.70;;
38224;SDS011;24025;48.138;11.428;2022-11-20T11:38:50;2.20;;;0.73;;
38224;SDS011;24025;48.138;11.428;2022-11-20T11:41:25;1.30;;;0.28;;
38224;SDS011;24025;48.138;11.428;2022-11-20T11:44:18;0.73;;;0.55;;
38224;SDS011;24025;48.138;11.428;2022-11-20T11:47:10;0.65;;;0.40;;
38224;SDS011;24025;48.138;11.428;2022-11-20T11:55:26;1.88;;;0.90;;
38224;SDS011;24025;48.138;11.428;2022-11-20T11:58:24;1.77;;;0.50;;
38224;SDS011;24025;48.138;11.428;2022-11-20T12:01:10;3.22;;;0.82;;
38224;SDS011;24025;48.138;11.428;2022-11-20T12:03:59;1.65;;;0.70;;
38224;SDS011;24025;48.138;11.428;2022-11-20T12:06:35;1.27;;;0.90;;
38224;SDS011;24025;48.138;11.428;2022-11-20T12:09:09;0.70;;;0.60;;
38224;SDS011;24025;48.138;11.428;2022-11-20T12:14:35;1.42;;;0.57;;
38224;SDS011;24025;48.138;11.428;2022-11-20T12:17:13;0.80;;;0.70;;
38224;SDS011;24025;48.138;11.428;2022-11-20T12:19:44;1.05;;;0.60;;
38224;SDS011;24025;48.138;11.428;2022-11-20T12:30:30;1.63;;;0.73;;
38224;SDS011;24025;48.138;11.428;2022-11-20T12:35:55;0.90;;;0.77;;
38224;SDS011;24025;48.138;11.428;2022-11-20T12:51:18;0.85;;;0.70;;
38224;SDS011;24025;48.138;11.428;2022-11-20T13:00:00;1.75;;;0.82;;
38224;SDS011;24025;48.138;11.428;2022-11-20T13:08:27;2.95;;;1.30;;
38224;SDS011;24025;48.138;11.428;2022-11-20T13:11:16;1.48;;;0.80;;
38224;SDS011;24025;48.138;11.428;2022-11-20T13:19:34;1.15;;;1.02;;
38224;SDS011;24025;48.138;11.428;2022-11-20T13:22:05;1.50;;;0.95;;
38224;SDS011;24025;48.138;11.428;2022-11-20T13:24:35;1.98;;;0.73;;
38224;SDS011;24025;48.138;11.428;2022-11-20T13:29:45;1.65;;;0.80;;
38224;SDS011;24025;48.138;11.428;2022-11-20T13:32:17;2.58;;;0.70;;
38224;SDS011;24025;48.138;11.428;2022-11-20T13:34:59;0.85;;;0.75;;
38224;SDS011;24025;48.138;11.428;2022-11-20T13:45:25;1.83;;;0.50;;
38224;SDS011;24025;48.138;11.428;2022-11-20T13:48:01;1.23;;;1.08;;
38224;SDS011;24025;48.138;11.428;2022-11-20T13:53:25;2.83;;;0.90;;
38224;SDS011;24025;48.138;11.428;2022-11-20T13:56:24;2.40;;;1.30;;
38224;SDS011;24025;48.138;11.428;2022-11-20T14:01:49;1.17;;;1.00;;
38224;SDS011;24025;48.138;11.428;2022-11-20T14:04:23;1.38;;;0.70;;
38224;SDS011;24025;48.138;11.428;2022-11-20T14:06:57;1.20;;;1.00;;
38224;SDS011;24025;48.138;11.428;2022-11-20T14:09:29;0.90;;;0.73;;
38224;SDS011;24025;48.138;11.428;2022-11-20T14:12:12;0.80;;;0.60;;
38224;SDS011;24025;48.138;11.428;2022-11-20T14:14:47;1.50;;;0.95;;
38224;SDS011;24025;48.138;11.428;2022-11-20T14:17:21;1.67;;;0.80;;
38224;SDS011;24025;48.138;11.428;2022-11-20T14:19:56;1.77;;;0.77;;
38224;SDS011;24025;48.138;11.428;2022-11-20T14:22:31;1.00;;;0.50;;
38224;SDS011;24025;48.138;11.428;2022-11-20T14:25:06;1.05;;;0.93;;
38224;SDS011;24025;48.138;11.428;2022-11-20T14:27:43;1.33;;;0.75;;
38224;SDS011;24025;48.138;11.428;2022-11-20T14:30:21;1.00;;;0.88;;
38224;SDS011;24025;48.138;11.428;2022-11-20T14:33:00;3.53;;;2.85;;
38224;SDS011;24025;48.138;11.428;2022-11-20T14:35:35;1.77;;;0.90;;
38224;SDS011;24025;48.138;11.428;2022-11-20T14:38:11;2.08;;;1.10;;
38224;SDS011;24025;48.138;11.428;2022-11-20T14:40:45;0.98;;;0.70;;
38224;SDS011;24025;48.138;11.428;2022-11-20T14:43:22;0.77;;;0.60;;
38224;SDS011;24025;48.138;11.428;2022-11-20T14:45:59;1.05;;;0.88;;
38224;SDS011;24025;48.138;11.428;2022-11-20T14:48:33;1.00;;;0.68;;
38224;SDS011;24025;48.138;11.428;2022-11-20T14:51:31;0.98;;;0.50;;
38224;SDS011;24025;48.138;11.428;2022-11-20T14:54:12;1.98;;;0.40;;
38224;SDS011;24025;48.138;11.428;2022-11-20T14:56:53;0.93;;;0.77;;
38224;SDS011;24025;48.138;11.428;2022-11-20T14:59:29;1.52;;;0.63;;
38224;SDS011;24025;48.138;11.428;2022-11-20T15:02:03;2.30;;;0.57;;
38224;SDS011;24025;48.138;11.428;2022-11-20T15:04:48;1.05;;;0.80;;
38224;SDS011;24025;48.138;11.428;2022-11-20T15:07:30;2.28;;;0.20;;
38224;SDS011;24025;48.138;11.428;2022-11-20T15:12:40;0.52;;;0.50;;
38224;SDS011;24025;48.138;11.428;2022-11-20T15:15:20;2.58;;;1.13;;
38224;SDS011;24025;48.138;11.428;2022-11-20T15:17:55;1.00;;;0.45;;
38224;SDS011;24025;48.138;11.428;2022-11-20T15:20:27;4.78;;;0.90;;
38224;SDS011;24025;48.138;11.428;2022-11-20T15:23:00;0.90;;;0.40;;
38224;SDS011;24025;48.138;11.428;2022-11-20T15:25:31;1.35;;;0.70;;
38224;SDS011;24025;48.138;11.428;2022-11-20T15:28:01;1.70;;;0.75;;
38224;SDS011;24025;48.138;11.428;2022-11-20T15:30:32;1.35;;;0.60;;
38224;SDS011;24025;48.138;11.428;2022-11-20T15:33:02;1.70;;;0.80;;
38224;SDS011;24025;48.138;11.428;2022-11-20T15:35:33;2.92;;;1.70;;
38224;SDS011;24025;48.138;11.428;2022-11-20T15:38:03;3.22;;;1.45;;
38224;SDS011;24025;48.138;11.428;2022-11-20T15:40:33;9.45;;;3.97;;
38224;SDS011;24025;48.138;11.428;2022-11-20T15:43:04;1.92;;;1.42;;
38224;SDS011;24025;48.138;11.428;2022-11-20T15:45:39;1.27;;;0.77;;
38224;SDS011;24025;48.138;11.428;2022-11-20T15:48:23;1.17;;;0.88;;
38224;SDS011;24025;48.138;11.428;2022-11-20T15:50:58;2.20;;;0.70;;
38224;SDS011;24025;48.138;11.428;2022-11-20T15:53:33;0.85;;;0.65;;
38224;SDS011;24025;48.138;11.428;2022-11-20T15:56:03;4.25;;;0.60;;
38224;SDS011;24025;48.138;11.428;2022-11-20T15:58:34;0.93;;;0.40;;
38224;SDS011;24025;48.138;11.428;2022-11-20T16:01:04;1.10;;;0.57;;
38224;SDS011;24025;48.138;11.428;2022-11-20T16:03:35;1.85;;;0.57;;
38224;SDS011;24025;48.138;11.428;2022-11-20T16:06:05;1.77;;;0.73;;
38224;SDS011;24025;48.138;11.428;2022-11-20T16:08:35;1.35;;;0.77;;
38224;SDS011;24025;48.138;11.428;2022-11-20T16:11:06;0.98;;;0.70;;
38224;SDS011;24025;48.138;11.428;2022-11-20T16:13:36;1.40;;;0.68;;
38224;SDS011;24025;48.138;11.428;2022-11-20T16:16:29;1.80;;;1.33;;
38224;SDS011;24025;48.138;11.428;2022-11-20T16:19:04;2.45;;;0.75;;
38224;SDS011;24025;48.138;11.428;2022-11-20T16:21:34;1.63;;;1.08;;
38224;SDS011;24025;48.138;11.428;2022-11-20T16:24:09;2.42;;;0.90;;
38224;SDS011;24025;48.138;11.428;2022-11-20T16:26:42;2.70;;;0.90;;
38224;SDS011;24025;48.138;11.428;2022-11-20T16:29:13;2.30;;;1.05;;
38224;SDS011;24025;48.138;11.428;2022-11-20T16:31:43;2.65;;;1.70;;
38224;SDS011;24025;48.138;11.428;2022-11-20T16:34:15;3.15;;;1.60;;
38224;SDS011;24025;48.138;11.428;2022-11-20T16:36:46;4.93;;;3.00;;
38224;SDS011;24025;48.138;11.428;2022-11-20T16:39:16;6.45;;;2.97;;
38224;SDS011;24025;48.138;11.428;2022-11-20T16:41:47;6.60;;;3.92;;
38224;SDS011;24025;48.138;11.428;2022-11-20T16:44:17;9.25;;;3.88;;
38224;SDS011;24025;48.138;11.428;2022-11-20T16:46:48;4.20;;;2.60;;
38224;SDS011;24025;48.138;11.428;2022-11-20T16:49:18;3.22;;;2.15;;
38224;SDS011;24025;48.138;11.428;2022-11-20T16:51:49;3.75;;;2.35;;
38224;SDS011;24025;48.138;11.428;2022-11-20T16:54:19;5.75;;;3.10;;
38224;SDS011;24025;48.138;11.428;2022-11-20T16:56:49;3.05;;;2.60;;
38224;SDS011;24025;48.138;11.428;2022-11-20T16:59:22;4.47;;;2.35;;